sensor_id;sensor_type;location;lat;lon;timestamp;P1;durP1;ratioP1;P2;durP2;ratioP2
35693;SDS011;21812;55.536;37.664;2022-08-19T00:00:20;16.77;;;4.32;;
35693;SDS011;21812;55.536;37.664;2022-08-19T00:02:46;8.90;;;4.28;;
35693;SDS011;21812;55.536;37.664;2022-08-19T00:05:13;5.30;;;3.88;;
35693;SDS011;21812;55.536;37.664;2022-08-19T00:07:40;6.32;;;3.45;;
35693;SDS011;21812;55.536;37.664;2022-08-19T00:10:08;11.40;;;5.22;;
35693;SDS011;21812;55.536;37.664;2022-08-19T00:12:36;9.75;;;4.90;;
35693;SDS011;21812;55.536;37.664;2022-08-19T00:15:06;6.25;;;5.00;;
35693;SDS011;21812;55.536;37.664;2022-08-19T00:17:38;8.73;;;4.53;;
35693;SDS011;21812;55.536;37.664;2022-08-19T00:20:05;7.28;;;3.95;;
35693;SDS011;21812;55.536;37.664;2022-08-19T00:22:32;8.05;;;3.60;;
35693;SDS011;21812;55.536;37.664;2022-08-19T00:24:58;7.30;;;4.13;;
35693;SDS011;21812;55.536;37.664;2022-08-19T00:27:26;5.50;;;3.88;;
35693;SDS011;21812;55.536;37.664;2022-08-19T00:29:52;5.72;;;4.22;;
35693;SDS011;21812;55.536;37.664;2022-08-19T00:32:18;10.93;;;4.28;;
35693;SDS011;21812;55.536;37.664;2022-08-19T00:34:44;7.82;;;4.47;;
35693;SDS011;21812;55.536;37.664;2022-08-19T00:37:09;7.50;;;3.95;;
35693;SDS011;21812;55.536;37.664;2022-08-19T00:39:35;4.38;;;3.50;;
35693;SDS011;21812;55.536;37.664;2022-08-19T00:42:01;7.90;;;3.60;;
35693;SDS011;21812;55.536;37.664;2022-08-19T00:44:29;8.77;;;3.88;;
35693;SDS011;21812;55.536;37.664;2022-08-19T00:46:56;5.32;;;4.10;;
35693;SDS011;21812;55.536;37.664;2022-08-19T00:54:58;8.18;;;5.32;;
35693;SDS011;21812;55.536;37.664;2022-08-19T00:57:28;6.15;;;4.20;;
35693;SDS011;21812;55.536;37.664;2022-08-19T01:00:06;8.50;;;4.72;;
35693;SDS011;21812;55.536;37.664;2022-08-19T01:02:37;5.65;;;4.28;;
35693;SDS011;21812;55.536;37.664;2022-08-19T01:05:05;8.23;;;4.70;;
35693;SDS011;21812;55.536;37.664;2022-08-19T01:07:34;7.32;;;4.32;;
35693;SDS011;21812;55.536;37.664;2022-08-19T01:10:03;15.00;;;5.15;;
35693;SDS011;21812;55.536;37.664;2022-08-19T01:12:30;8.65;;;5.05;;
35693;SDS011;21812;55.536;37.664;2022-08-19T01:14:56;9.38;;;5.10;;
35693;SDS011;21812;55.536;37.664;2022-08-19T01:17:22;7.22;;;4.85;;
35693;SDS011;21812;55.536;37.664;2022-08-19T01:19:48;11.98;;;6.45;;
35693;SDS011;21812;55.536;37.664;2022-08-19T01:24:49;10.95;;;4.90;;
35693;SDS011;21812;55.536;37.664;2022-08-19T01:27:16;8.48;;;4.72;;
35693;SDS011;21812;55.536;37.664;2022-08-19T01:29:42;8.18;;;4.65;;
35693;SDS011;21812;55.536;37.664;2022-08-19T01:32:11;9.95;;;4.82;;
35693;SDS011;21812;55.536;37.664;2022-08-19T01:34:39;7.80;;;4.78;;
35693;SDS011;21812;55.536;37.664;2022-08-19T01:37:11;6.00;;;4.55;;
35693;SDS011;21812;55.536;37.664;2022-08-19T01:39:37;5.43;;;4.57;;
35693;SDS011;21812;55.536;37.664;2022-08-19T01:42:05;8.10;;;4.78;;
35693;SDS011;21812;55.536;37.664;2022-08-19T01:44:32;11.57;;;4.38;;
35693;SDS011;21812;55.536;37.664;2022-08-19T01:46:58;8.43;;;4.57;;
35693;SDS011;21812;55.536;37.664;2022-08-19T01:49:25;8.02;;;4.63;;
35693;SDS011;21812;55.536;37.664;2022-08-19T01:51:52;4.97;;;4.45;;
35693;SDS011;21812;55.536;37.664;2022-08-19T01:54:19;5.28;;;4.78;;
35693;SDS011;21812;55.536;37.664;2022-08-19T01:56:46;4.63;;;3.83;;
35693;SDS011;21812;55.536;37.664;2022-08-19T01:59:13;4.70;;;4.18;;
35693;SDS011;21812;55.536;37.664;2022-08-19T02:01:41;8.07;;;4.05;;
35693;SDS011;21812;55.536;37.664;2022-08-19T02:04:07;5.15;;;4.05;;
35693;SDS011;21812;55.536;37.664;2022-08-19T02:06:33;6.18;;;3.92;;
35693;SDS011;21812;55.536;37.664;2022-08-19T02:08:59;7.20;;;3.78;;
35693;SDS011;21812;55.536;37.664;2022-08-19T02:11:27;7.15;;;3.85;;
35693;SDS011;21812;55.536;37.664;2022-08-19T02:13:56;6.78;;;3.75;;
35693;SDS011;21812;55.536;37.664;2022-08-19T02:16:23;7.38;;;4.20;;
35693;SDS011;21812;55.536;37.664;2022-08-19T02:18:49;5.40;;;3.53;;
35693;SDS011;21812;55.536;37.664;2022-08-19T02:21:16;9.23;;;3.22;;
35693;SDS011;21812;55.536;37.664;2022-08-19T02:23:42;8.93;;;5.25;;
35693;SDS011;21812;55.536;37.664;2022-08-19T02:26:09;5.25;;;3.60;;
35693;SDS011;21812;55.536;37.664;2022-08-19T02:28:35;5.63;;;3.67;;
35693;SDS011;21812;55.536;37.664;2022-08-19T02:31:01;6.68;;;3.78;;
35693;SDS011;21812;55.536;37.664;2022-08-19T02:33:28;8.40;;;3.97;;
35693;SDS011;21812;55.536;37.664;2022-08-19T02:35:54;4.53;;;3.35;;
35693;SDS011;21812;55.536;37.664;2022-08-19T02:38:20;5.25;;;3.17;;
35693;SDS011;21812;55.536;37.664;2022-08-19T02:40:55;5.78;;;3.10;;
35693;SDS011;21812;55.536;37.664;2022-08-19T02:43:23;5.93;;;3.30;;
35693;SDS011;21812;55.536;37.664;2022-08-19T02:45:51;4.18;;;3.25;;
35693;SDS011;21812;55.536;37.664;2022-08-19T02:48:21;4.95;;;3.53;;
35693;SDS011;21812;55.536;37.664;2022-08-19T02:50:52;8.65;;;3.45;;
35693;SDS011;21812;55.536;37.664;2022-08-19T02:53:24;5.57;;;3.05;;
35693;SDS011;21812;55.536;37.664;2022-08-19T02:55:54;8.02;;;3.08;;
35693;SDS011;21812;55.536;37.664;2022-08-19T02:58:20;6.95;;;3.30;;
35693;SDS011;21812;55.536;37.664;2022-08-19T03:00:48;5.20;;;3.42;;
35693;SDS011;21812;55.536;37.664;2022-08-19T03:03:19;4.18;;;3.25;;
35693;SDS011;21812;55.536;37.664;2022-08-19T03:05:45;5.30;;;3.40;;
35693;SDS011;21812;55.536;37.664;2022-08-19T03:08:12;4.00;;;2.75;;
35693;SDS011;21812;55.536;37.664;2022-08-19T03:10:42;11.50;;;3.13;;
35693;SDS011;21812;55.536;37.664;2022-08-19T03:13:13;6.82;;;3.22;;
35693;SDS011;21812;55.536;37.664;2022-08-19T03:15:44;4.18;;;2.92;;
35693;SDS011;21812;55.536;37.664;2022-08-19T03:18:12;7.63;;;3.20;;
35693;SDS011;21812;55.536;37.664;2022-08-19T03:20:46;4.05;;;2.35;;
35693;SDS011;21812;55.536;37.664;2022-08-19T03:23:19;5.32;;;2.88;;
35693;SDS011;21812;55.536;37.664;2022-08-19T03:25:47;4.68;;;2.60;;
35693;SDS011;21812;55.536;37.664;2022-08-19T03:28:15;6.28;;;2.80;;
35693;SDS011;21812;55.536;37.664;2022-08-19T03:30:42;13.32;;;2.70;;
35693;SDS011;21812;55.536;37.664;2022-08-19T03:33:09;7.05;;;2.83;;
35693;SDS011;21812;55.536;37.664;2022-08-19T03:35:37;7.90;;;3.17;;
35693;SDS011;21812;55.536;37.664;2022-08-19T03:38:04;13.07;;;3.38;;
35693;SDS011;21812;55.536;37.664;2022-08-19T03:40:32;5.47;;;2.95;;
35693;SDS011;21812;55.536;37.664;2022-08-19T03:43:00;11.05;;;2.92;;
35693;SDS011;21812;55.536;37.664;2022-08-19T03:45:26;7.00;;;2.97;;
35693;SDS011;21812;55.536;37.664;2022-08-19T03:47:52;9.38;;;3.30;;
35693;SDS011;21812;55.536;37.664;2022-08-19T03:50:18;8.85;;;3.03;;
35693;SDS011;21812;55.536;37.664;2022-08-19T03:52:47;8.20;;;2.90;;
35693;SDS011;21812;55.536;37.664;2022-08-19T03:55:17;7.90;;;2.80;;
35693;SDS011;21812;55.536;37.664;2022-08-19T03:57:44;7.88;;;3.17;;
35693;SDS011;21812;55.536;37.664;2022-08-19T04:00:11;5.65;;;2.80;;
35693;SDS011;21812;55.536;37.664;2022-08-19T04:02:37;5.88;;;3.00;;
35693;SDS011;21812;55.536;37.664;2022-08-19T04:05:03;8.73;;;3.70;;
35693;SDS011;21812;55.536;37.664;2022-08-19T04:07:30;9.73;;;2.92;;
35693;SDS011;21812;55.536;37.664;2022-08-19T04:09:56;7.78;;;3.28;;
35693;SDS011;21812;55.536;37.664;2022-08-19T04:12:21;17.45;;;5.63;;
35693;SDS011;21812;55.536;37.664;2022-08-19T04:14:47;6.22;;;2.92;;
35693;SDS011;21812;55.536;37.664;2022-08-19T04:17:13;7.10;;;3.60;;
35693;SDS011;21812;55.536;37.664;2022-08-19T04:19:39;7.60;;;3.35;;
35693;SDS011;21812;55.536;37.664;2022-08-19T04:22:05;8.20;;;3.10;;
35693;SDS011;21812;55.536;37.664;2022-08-19T04:24:35;11.32;;;3.75;;
35693;SDS011;21812;55.536;37.664;2022-08-19T04:27:01;9.95;;;3.13;;
35693;SDS011;21812;55.536;37.664;2022-08-19T04:29:27;9.40;;;4.32;;
35693;SDS011;21812;55.536;37.664;2022-08-19T04:31:55;7.95;;;2.97;;
35693;SDS011;21812;55.536;37.664;2022-08-19T04:34:23;5.45;;;3.70;;
35693;SDS011;21812;55.536;37.664;2022-08-19T04:36:52;8.45;;;3.15;;
35693;SDS011;21812;55.536;37.664;2022-08-19T04:39:20;5.20;;;2.78;;
35693;SDS011;21812;55.536;37.664;2022-08-19T04:41:48;7.20;;;3.50;;
35693;SDS011;21812;55.536;37.664;2022-08-19T04:44:33;6.97;;;3.25;;
35693;SDS011;21812;55.536;37.664;2022-08-19T04:47:01;5.40;;;3.20;;
35693;SDS011;21812;55.536;37.664;2022-08-19T04:49:30;9.65;;;3.97;;
35693;SDS011;21812;55.536;37.664;2022-08-19T04:51:56;7.97;;;4.13;;
35693;SDS011;21812;55.536;37.664;2022-08-19T04:54:23;6.63;;;3.30;;
35693;SDS011;21812;55.536;37.664;2022-08-19T04:56:50;9.82;;;3.20;;
35693;SDS011;21812;55.536;37.664;2022-08-19T04:59:18;24.55;;;5.45;;
35693;SDS011;21812;55.536;37.664;2022-08-19T05:01:45;74.68;;;15.18;;
35693;SDS011;21812;55.536;37.664;2022-08-19T05:04:15;27.38;;;6.43;;
35693;SDS011;21812;55.536;37.664;2022-08-19T05:06:46;18.40;;;5.60;;
35693;SDS011;21812;55.536;37.664;2022-08-19T05:09:14;11.52;;;3.75;;
35693;SDS011;21812;55.536;37.664;2022-08-19T05:11:41;6.70;;;3.83;;
35693;SDS011;21812;55.536;37.664;2022-08-19T05:14:07;7.47;;;3.88;;
35693;SDS011;21812;55.536;37.664;2022-08-19T05:16:34;7.45;;;3.42;;
35693;SDS011;21812;55.536;37.664;2022-08-19T05:19:00;10.50;;;3.83;;
35693;SDS011;21812;55.536;37.664;2022-08-19T05:21:44;5.32;;;3.15;;
35693;SDS011;21812;55.536;37.664;2022-08-19T05:24:29;4.80;;;2.83;;
35693;SDS011;21812;55.536;37.664;2022-08-19T05:26:58;9.23;;;4.00;;
35693;SDS011;21812;55.536;37.664;2022-08-19T05:29:25;6.63;;;3.65;;
35693;SDS011;21812;55.536;37.664;2022-08-19T05:31:52;6.88;;;3.33;;
35693;SDS011;21812;55.536;37.664;2022-08-19T05:34:20;6.05;;;3.45;;
35693;SDS011;21812;55.536;37.664;2022-08-19T05:36:50;10.77;;;3.70;;
35693;SDS011;21812;55.536;37.664;2022-08-19T05:39:22;8.02;;;3.90;;
35693;SDS011;21812;55.536;37.664;2022-08-19T05:41:54;5.30;;;3.17;;
35693;SDS011;21812;55.536;37.664;2022-08-19T05:44:23;16.92;;;3.30;;
35693;SDS011;21812;55.536;37.664;2022-08-19T05:46:52;15.80;;;3.45;;
35693;SDS011;21812;55.536;37.664;2022-08-19T05:49:19;6.38;;;3.90;;
35693;SDS011;21812;55.536;37.664;2022-08-19T05:51:46;8.80;;;3.20;;
35693;SDS011;21812;55.536;37.664;2022-08-19T05:54:12;5.13;;;3.22;;
35693;SDS011;21812;55.536;37.664;2022-08-19T05:56:41;12.25;;;4.45;;
35693;SDS011;21812;55.536;37.664;2022-08-19T05:59:13;5.80;;;3.50;;
35693;SDS011;21812;55.536;37.664;2022-08-19T06:01:41;6.28;;;3.22;;
35693;SDS011;21812;55.536;37.664;2022-08-19T06:04:08;10.20;;;4.43;;
35693;SDS011;21812;55.536;37.664;2022-08-19T06:06:34;6.68;;;3.30;;
35693;SDS011;21812;55.536;37.664;2022-08-19T06:09:04;6.95;;;3.50;;
35693;SDS011;21812;55.536;37.664;2022-08-19T06:11:33;8.98;;;3.47;;
35693;SDS011;21812;55.536;37.664;2022-08-19T06:14:02;7.25;;;2.92;;
35693;SDS011;21812;55.536;37.664;2022-08-19T06:16:30;4.05;;;2.75;;
35693;SDS011;21812;55.536;37.664;2022-08-19T06:19:01;10.10;;;2.90;;
35693;SDS011;21812;55.536;37.664;2022-08-19T06:21:29;6.72;;;3.63;;
35693;SDS011;21812;55.536;37.664;2022-08-19T06:23:56;7.90;;;4.00;;
35693;SDS011;21812;55.536;37.664;2022-08-19T06:26:23;9.95;;;4.40;;
35693;SDS011;21812;55.536;37.664;2022-08-19T06:28:49;9.68;;;4.10;;
35693;SDS011;21812;55.536;37.664;2022-08-19T06:31:17;8.35;;;4.22;;
35693;SDS011;21812;55.536;37.664;2022-08-19T06:33:45;5.30;;;4.22;;
35693;SDS011;21812;55.536;37.664;2022-08-19T06:36:20;9.20;;;4.07;;
35693;SDS011;21812;55.536;37.664;2022-08-19T06:38:47;9.02;;;4.57;;
35693;SDS011;21812;55.536;37.664;2022-08-19T06:41:13;13.57;;;4.32;;
35693;SDS011;21812;55.536;37.664;2022-08-19T06:43:38;11.30;;;4.55;;
35693;SDS011;21812;55.536;37.664;2022-08-19T06:46:09;9.25;;;4.40;;
35693;SDS011;21812;55.536;37.664;2022-08-19T06:48:36;10.45;;;4.65;;
35693;SDS011;21812;55.536;37.664;2022-08-19T06:51:02;25.98;;;6.97;;
35693;SDS011;21812;55.536;37.664;2022-08-19T06:53:30;10.15;;;5.30;;
35693;SDS011;21812;55.536;37.664;2022-08-19T06:55:56;11.75;;;4.55;;
35693;SDS011;21812;55.536;37.664;2022-08-19T06:58:25;91.90;;;17.48;;
35693;SDS011;21812;55.536;37.664;2022-08-19T07:00:51;54.05;;;9.48;;
35693;SDS011;21812;55.536;37.664;2022-08-19T07:03:17;12.35;;;5.13;;
35693;SDS011;21812;55.536;37.664;2022-08-19T07:05:43;26.55;;;8.02;;
35693;SDS011;21812;55.536;37.664;2022-08-19T07:08:08;9.27;;;4.95;;
35693;SDS011;21812;55.536;37.664;2022-08-19T07:10:35;10.18;;;4.43;;
35693;SDS011;21812;55.536;37.664;2022-08-19T07:13:02;7.15;;;4.07;;
35693;SDS011;21812;55.536;37.664;2022-08-19T07:15:29;47.38;;;8.50;;
35693;SDS011;21812;55.536;37.664;2022-08-19T07:17:55;15.70;;;6.25;;
35693;SDS011;21812;55.536;37.664;2022-08-19T07:20:21;78.18;;;13.15;;
35693;SDS011;21812;55.536;37.664;2022-08-19T07:22:47;19.25;;;6.97;;
35693;SDS011;21812;55.536;37.664;2022-08-19T07:25:12;9.13;;;4.47;;
35693;SDS011;21812;55.536;37.664;2022-08-19T07:27:38;12.32;;;5.18;;
35693;SDS011;21812;55.536;37.664;2022-08-19T07:30:04;11.35;;;5.15;;
35693;SDS011;21812;55.536;37.664;2022-08-19T07:32:30;13.10;;;4.88;;
35693;SDS011;21812;55.536;37.664;2022-08-19T07:34:59;10.95;;;4.85;;
35693;SDS011;21812;55.536;37.664;2022-08-19T07:37:25;6.47;;;4.20;;
35693;SDS011;21812;55.536;37.664;2022-08-19T07:39:54;11.40;;;4.30;;
35693;SDS011;21812;55.536;37.664;2022-08-19T07:42:19;8.32;;;4.25;;
35693;SDS011;21812;55.536;37.664;2022-08-19T07:44:46;7.80;;;3.30;;
35693;SDS011;21812;55.536;37.664;2022-08-19T07:47:12;9.70;;;4.00;;
35693;SDS011;21812;55.536;37.664;2022-08-19T07:49:40;7.40;;;4.78;;
35693;SDS011;21812;55.536;37.664;2022-08-19T07:52:07;8.00;;;4.18;;
35693;SDS011;21812;55.536;37.664;2022-08-19T07:54:34;5.15;;;4.05;;
35693;SDS011;21812;55.536;37.664;2022-08-19T07:57:03;9.30;;;3.78;;
35693;SDS011;21812;55.536;37.664;2022-08-19T07:59:30;12.48;;;4.07;;
35693;SDS011;21812;55.536;37.664;2022-08-19T08:01:56;8.23;;;3.70;;
35693;SDS011;21812;55.536;37.664;2022-08-19T08:04:25;7.20;;;3.75;;
35693;SDS011;21812;55.536;37.664;2022-08-19T08:07:10;10.95;;;3.88;;
35693;SDS011;21812;55.536;37.664;2022-08-19T08:09:55;4.50;;;2.83;;
35693;SDS011;21812;55.536;37.664;2022-08-19T08:12:23;6.30;;;3.38;;
35693;SDS011;21812;55.536;37.664;2022-08-19T08:14:54;5.95;;;3.28;;
35693;SDS011;21812;55.536;37.664;2022-08-19T08:17:24;9.55;;;3.15;;
35693;SDS011;21812;55.536;37.664;2022-08-19T08:19:51;8.18;;;3.75;;
35693;SDS011;21812;55.536;37.664;2022-08-19T08:22:18;4.85;;;3.55;;
35693;SDS011;21812;55.536;37.664;2022-08-19T08:25:08;6.38;;;3.78;;
35693;SDS011;21812;55.536;37.664;2022-08-19T08:27:37;7.82;;;3.58;;
35693;SDS011;21812;55.536;37.664;2022-08-19T08:30:08;10.82;;;4.15;;
35693;SDS011;21812;55.536;37.664;2022-08-19T08:32:36;5.70;;;3.10;;
35693;SDS011;21812;55.536;37.664;2022-08-19T08:35:06;6.32;;;3.67;;
35693;SDS011;21812;55.536;37.664;2022-08-19T08:37:33;5.80;;;3.05;;
35693;SDS011;21812;55.536;37.664;2022-08-19T08:40:03;9.93;;;4.03;;
35693;SDS011;21812;55.536;37.664;2022-08-19T08:42:36;5.50;;;3.15;;
35693;SDS011;21812;55.536;37.664;2022-08-19T08:45:08;5.60;;;4.13;;
35693;SDS011;21812;55.536;37.664;2022-08-19T08:47:40;6.30;;;3.30;;
35693;SDS011;21812;55.536;37.664;2022-08-19T08:50:16;5.63;;;2.60;;
35693;SDS011;21812;55.536;37.664;2022-08-19T08:52:48;3.70;;;2.90;;
35693;SDS011;21812;55.536;37.664;2022-08-19T08:55:19;3.92;;;2.90;;
35693;SDS011;21812;55.536;37.664;2022-08-19T09:00:26;6.13;;;3.28;;
35693;SDS011;21812;55.536;37.664;2022-08-19T09:03:02;6.72;;;3.50;;
35693;SDS011;21812;55.536;37.664;2022-08-19T09:05:41;10.43;;;3.38;;
35693;SDS011;21812;55.536;37.664;2022-08-19T09:08:42;9.52;;;3.95;;
35693;SDS011;21812;55.536;37.664;2022-08-19T09:14:14;11.90;;;3.97;;
35693;SDS011;21812;55.536;37.664;2022-08-19T09:17:03;7.28;;;2.95;;
35693;SDS011;21812;55.536;37.664;2022-08-19T09:19:34;6.00;;;4.20;;
35693;SDS011;21812;55.536;37.664;2022-08-19T09:22:18;16.50;;;3.45;;
35693;SDS011;21812;55.536;37.664;2022-08-19T09:24:50;4.95;;;2.75;;
35693;SDS011;21812;55.536;37.664;2022-08-19T09:27:19;7.67;;;3.83;;
35693;SDS011;21812;55.536;37.664;2022-08-19T09:29:46;3.92;;;3.30;;
35693;SDS011;21812;55.536;37.664;2022-08-19T09:32:14;12.68;;;5.70;;
35693;SDS011;21812;55.536;37.664;2022-08-19T09:34:41;9.93;;;3.13;;
35693;SDS011;21812;55.536;37.664;2022-08-19T09:37:07;8.52;;;3.30;;
35693;SDS011;21812;55.536;37.664;2022-08-19T09:39:33;12.52;;;2.95;;
35693;SDS011;21812;55.536;37.664;2022-08-19T09:41:58;9.63;;;3.67;;
35693;SDS011;21812;55.536;37.664;2022-08-19T09:44:24;6.13;;;2.92;;
35693;SDS011;21812;55.536;37.664;2022-08-19T09:46:50;4.70;;;3.30;;
35693;SDS011;21812;55.536;37.664;2022-08-19T09:49:17;5.75;;;3.42;;
35693;SDS011;21812;55.536;37.664;2022-08-19T09:51:44;7.72;;;3.47;;
35693;SDS011;21812;55.536;37.664;2022-08-19T09:54:12;5.55;;;2.65;;
35693;SDS011;21812;55.536;37.664;2022-08-19T09:56:39;5.82;;;3.00;;
35693;SDS011;21812;55.536;37.664;2022-08-19T09:59:05;5.68;;;2.38;;
35693;SDS011;21812;55.536;37.664;2022-08-19T10:01:31;5.90;;;2.58;;
35693;SDS011;21812;55.536;37.664;2022-08-19T10:04:00;3.63;;;2.50;;
35693;SDS011;21812;55.536;37.664;2022-08-19T10:06:29;14.07;;;3.67;;
35693;SDS011;21812;55.536;37.664;2022-08-19T10:08:59;3.28;;;2.60;;
35693;SDS011;21812;55.536;37.664;2022-08-19T10:11:25;4.88;;;2.40;;
35693;SDS011;21812;55.536;37.664;2022-08-19T10:13:51;8.00;;;2.53;;
35693;SDS011;21812;55.536;37.664;2022-08-19T10:16:18;3.60;;;2.28;;
35693;SDS011;21812;55.536;37.664;2022-08-19T10:18:46;10.00;;;2.40;;
35693;SDS011;21812;55.536;37.664;2022-08-19T10:21:16;5.43;;;2.40;;
35693;SDS011;21812;55.536;37.664;2022-08-19T10:23:51;13.70;;;2.70;;
35693;SDS011;21812;55.536;37.664;2022-08-19T10:26:21;3.38;;;2.28;;
35693;SDS011;21812;55.536;37.664;2022-08-19T10:28:48;5.50;;;2.08;;
35693;SDS011;21812;55.536;37.664;2022-08-19T10:31:17;8.27;;;2.92;;
35693;SDS011;21812;55.536;37.664;2022-08-19T10:33:45;9.35;;;2.50;;
35693;SDS011;21812;55.536;37.664;2022-08-19T10:36:15;4.88;;;2.35;;
35693;SDS011;21812;55.536;37.664;2022-08-19T10:38:43;4.93;;;2.22;;
35693;SDS011;21812;55.536;37.664;2022-08-19T10:41:14;7.15;;;2.63;;
35693;SDS011;21812;55.536;37.664;2022-08-19T10:43:41;5.43;;;2.55;;
35693;SDS011;21812;55.536;37.664;2022-08-19T10:46:09;6.82;;;4.88;;
35693;SDS011;21812;55.536;37.664;2022-08-19T10:48:40;10.90;;;2.70;;
35693;SDS011;21812;55.536;37.664;2022-08-19T10:51:06;6.75;;;2.45;;
35693;SDS011;21812;55.536;37.664;2022-08-19T10:53:51;6.05;;;2.75;;
35693;SDS011;21812;55.536;37.664;2022-08-19T10:56:17;7.22;;;3.17;;
35693;SDS011;21812;55.536;37.664;2022-08-19T10:59:01;10.13;;;3.70;;
35693;SDS011;21812;55.536;37.664;2022-08-19T11:01:29;8.13;;;2.63;;
35693;SDS011;21812;55.536;37.664;2022-08-19T11:03:59;4.95;;;3.17;;
35693;SDS011;21812;55.536;37.664;2022-08-19T11:06:26;4.13;;;3.00;;
35693;SDS011;21812;55.536;37.664;2022-08-19T11:08:53;6.65;;;3.17;;
35693;SDS011;21812;55.536;37.664;2022-08-19T11:11:19;5.97;;;2.95;;
35693;SDS011;21812;55.536;37.664;2022-08-19T11:13:46;3.75;;;2.28;;
35693;SDS011;21812;55.536;37.664;2022-08-19T11:16:14;7.03;;;3.10;;
35693;SDS011;21812;55.536;37.664;2022-08-19T11:18:43;6.35;;;3.15;;
35693;SDS011;21812;55.536;37.664;2022-08-19T11:21:18;5.43;;;2.90;;
35693;SDS011;21812;55.536;37.664;2022-08-19T11:23:45;6.07;;;2.83;;
35693;SDS011;21812;55.536;37.664;2022-08-19T11:26:12;10.23;;;2.78;;
35693;SDS011;21812;55.536;37.664;2022-08-19T11:28:40;9.77;;;3.08;;
35693;SDS011;21812;55.536;37.664;2022-08-19T11:31:10;5.40;;;3.30;;
35693;SDS011;21812;55.536;37.664;2022-08-19T11:33:37;9.73;;;3.75;;
35693;SDS011;21812;55.536;37.664;2022-08-19T11:36:03;5.05;;;2.45;;
35693;SDS011;21812;55.536;37.664;2022-08-19T11:38:30;5.22;;;2.90;;
35693;SDS011;21812;55.536;37.664;2022-08-19T11:40:59;3.67;;;2.75;;
35693;SDS011;21812;55.536;37.664;2022-08-19T11:43:26;5.85;;;2.97;;
35693;SDS011;21812;55.536;37.664;2022-08-19T11:45:54;2.92;;;2.40;;
35693;SDS011;21812;55.536;37.664;2022-08-19T11:48:20;6.03;;;2.97;;
35693;SDS011;21812;55.536;37.664;2022-08-19T11:50:48;6.47;;;2.45;;
35693;SDS011;21812;55.536;37.664;2022-08-19T11:53:14;7.47;;;2.60;;
35693;SDS011;21812;55.536;37.664;2022-08-19T11:55:41;5.38;;;2.85;;
35693;SDS011;21812;55.536;37.664;2022-08-19T11:58:08;9.43;;;3.00;;
35693;SDS011;21812;55.536;37.664;2022-08-19T12:00:34;4.55;;;2.92;;
35693;SDS011;21812;55.536;37.664;2022-08-19T12:03:02;5.55;;;2.55;;
35693;SDS011;21812;55.536;37.664;2022-08-19T12:05:28;7.85;;;3.17;;
35693;SDS011;21812;55.536;37.664;2022-08-19T12:07:54;9.13;;;2.88;;
35693;SDS011;21812;55.536;37.664;2022-08-19T12:10:20;4.38;;;2.95;;
35693;SDS011;21812;55.536;37.664;2022-08-19T12:12:46;5.28;;;2.95;;
35693;SDS011;21812;55.536;37.664;2022-08-19T12:15:12;7.22;;;3.20;;
35693;SDS011;21812;55.536;37.664;2022-08-19T12:17:39;7.75;;;2.88;;
35693;SDS011;21812;55.536;37.664;2022-08-19T12:20:07;7.13;;;2.80;;
35693;SDS011;21812;55.536;37.664;2022-08-19T12:22:38;8.27;;;2.97;;
35693;SDS011;21812;55.536;37.664;2022-08-19T12:25:08;5.13;;;2.65;;
35693;SDS011;21812;55.536;37.664;2022-08-19T12:27:36;5.25;;;2.60;;
35693;SDS011;21812;55.536;37.664;2022-08-19T12:30:02;4.55;;;2.70;;
35693;SDS011;21812;55.536;37.664;2022-08-19T12:32:29;8.70;;;3.45;;
35693;SDS011;21812;55.536;37.664;2022-08-19T12:34:57;8.70;;;3.17;;
35693;SDS011;21812;55.536;37.664;2022-08-19T12:37:22;7.72;;;3.17;;
35693;SDS011;21812;55.536;37.664;2022-08-19T12:39:48;10.80;;;4.55;;
35693;SDS011;21812;55.536;37.664;2022-08-19T12:42:14;4.05;;;2.92;;
35693;SDS011;21812;55.536;37.664;2022-08-19T12:44:41;11.32;;;3.35;;
35693;SDS011;21812;55.536;37.664;2022-08-19T12:47:08;6.68;;;3.40;;
35693;SDS011;21812;55.536;37.664;2022-08-19T12:49:35;7.70;;;3.45;;
35693;SDS011;21812;55.536;37.664;2022-08-19T12:52:04;7.53;;;3.38;;
35693;SDS011;21812;55.536;37.664;2022-08-19T12:54:32;4.50;;;3.47;;
35693;SDS011;21812;55.536;37.664;2022-08-19T12:56:59;8.02;;;3.20;;
35693;SDS011;21812;55.536;37.664;2022-08-19T12:59:29;6.93;;;3.10;;
35693;SDS011;21812;55.536;37.664;2022-08-19T13:01:55;6.28;;;3.22;;
35693;SDS011;21812;55.536;37.664;2022-08-19T13:04:20;6.47;;;3.65;;
35693;SDS011;21812;55.536;37.664;2022-08-19T13:06:46;13.57;;;4.05;;
35693;SDS011;21812;55.536;37.664;2022-08-19T13:09:12;7.07;;;3.88;;
35693;SDS011;21812;55.536;37.664;2022-08-19T13:11:37;7.03;;;4.35;;
35693;SDS011;21812;55.536;37.664;2022-08-19T13:14:04;7.90;;;3.53;;
35693;SDS011;21812;55.536;37.664;2022-08-19T13:16:30;14.15;;;5.43;;
35693;SDS011;21812;55.536;37.664;2022-08-19T13:18:56;7.55;;;4.68;;
35693;SDS011;21812;55.536;37.664;2022-08-19T13:21:25;8.27;;;4.50;;
35693;SDS011;21812;55.536;37.664;2022-08-19T13:23:53;10.20;;;5.45;;
35693;SDS011;21812;55.536;37.664;2022-08-19T13:26:19;13.10;;;6.45;;
35693;SDS011;21812;55.536;37.664;2022-08-19T13:28:46;12.07;;;8.05;;
35693;SDS011;21812;55.536;37.664;2022-08-19T13:31:31;18.80;;;9.02;;
35693;SDS011;21812;55.536;37.664;2022-08-19T13:34:18;12.77;;;10.30;;
35693;SDS011;21812;55.536;37.664;2022-08-19T13:36:51;12.75;;;9.55;;
35693;SDS011;21812;55.536;37.664;2022-08-19T13:39:18;14.90;;;9.95;;
35693;SDS011;21812;55.536;37.664;2022-08-19T13:41:45;21.63;;;9.23;;
35693;SDS011;21812;55.536;37.664;2022-08-19T13:44:18;14.48;;;8.57;;
35693;SDS011;21812;55.536;37.664;2022-08-19T13:46:45;12.45;;;9.60;;
35693;SDS011;21812;55.536;37.664;2022-08-19T13:49:18;14.90;;;8.25;;
35693;SDS011;21812;55.536;37.664;2022-08-19T13:51:45;8.73;;;6.28;;
35693;SDS011;21812;55.536;37.664;2022-08-19T13:54:11;13.90;;;7.95;;
35693;SDS011;21812;55.536;37.664;2022-08-19T13:56:44;14.15;;;6.30;;
35693;SDS011;21812;55.536;37.664;2022-08-19T13:59:11;9.77;;;5.70;;
35693;SDS011;21812;55.536;37.664;2022-08-19T14:01:37;13.20;;;5.95;;
35693;SDS011;21812;55.536;37.664;2022-08-19T14:04:03;13.48;;;5.82;;
35693;SDS011;21812;55.536;37.664;2022-08-19T14:06:30;11.07;;;6.72;;
35693;SDS011;21812;55.536;37.664;2022-08-19T14:08:55;11.35;;;5.18;;
35693;SDS011;21812;55.536;37.664;2022-08-19T14:11:21;9.65;;;5.50;;
35693;SDS011;21812;55.536;37.664;2022-08-19T14:13:48;14.02;;;5.47;;
35693;SDS011;21812;55.536;37.664;2022-08-19T14:16:14;9.07;;;4.72;;
35693;SDS011;21812;55.536;37.664;2022-08-19T14:18:40;7.45;;;4.03;;
35693;SDS011;21812;55.536;37.664;2022-08-19T14:21:07;11.30;;;4.20;;
35693;SDS011;21812;55.536;37.664;2022-08-19T14:23:33;7.03;;;5.25;;
35693;SDS011;21812;55.536;37.664;2022-08-19T14:26:08;7.03;;;5.40;;
35693;SDS011;21812;55.536;37.664;2022-08-19T14:28:37;7.03;;;4.85;;
35693;SDS011;21812;55.536;37.664;2022-08-19T14:31:03;8.75;;;5.70;;
35693;SDS011;21812;55.536;37.664;2022-08-19T14:33:29;14.43;;;5.82;;
35693;SDS011;21812;55.536;37.664;2022-08-19T14:35:55;9.15;;;6.18;;
35693;SDS011;21812;55.536;37.664;2022-08-19T14:38:20;12.13;;;5.07;;
35693;SDS011;21812;55.536;37.664;2022-08-19T14:40:46;9.88;;;6.38;;
35693;SDS011;21812;55.536;37.664;2022-08-19T14:43:14;11.70;;;5.28;;
35693;SDS011;21812;55.536;37.664;2022-08-19T14:45:39;7.95;;;5.32;;
35693;SDS011;21812;55.536;37.664;2022-08-19T14:48:05;7.43;;;4.95;;
35693;SDS011;21812;55.536;37.664;2022-08-19T14:50:33;8.27;;;5.22;;